createdAt,value
2022-08-09T00:00:14.689Z,21.20
2022-08-09T00:02:50.071Z,21.20
2022-08-09T00:06:18.689Z,21.20
2022-08-09T00:08:11.092Z,21.20
2022-08-09T00:10:40.873Z,21.10
2022-08-09T00:13:16.682Z,21.10
2022-08-09T00:15:58.790Z,21.10
2022-08-09T00:18:34.954Z,21.00
2022-08-09T00:21:04.808Z,21.00
2022-08-09T00:23:56.241Z,21.00
2022-08-09T00:26:18.922Z,20.90
2022-08-09T00:28:56.973Z,20.90
2022-08-09T00:31:57.191Z,20.90
2022-08-09T00:34:12.395Z,20.80
2022-08-09T00:36:39.958Z,20.70
2022-08-09T00:39:10.952Z,20.70
2022-08-09T00:44:10.961Z,20.60
2022-08-09T00:44:42.831Z,20.60
2022-08-09T00:47:15.322Z,20.60
2022-08-09T00:49:43.806Z,20.50
2022-08-09T00:52:22.901Z,20.50
2022-08-09T00:55:01.294Z,20.40
2022-08-09T00:57:34.318Z,20.40
2022-08-09T01:00:21.589Z,20.40
2022-08-09T01:03:13.686Z,20.40
2022-08-09T01:05:55.108Z,20.30
2022-08-09T01:08:48.874Z,20.30
2022-08-09T01:11:33.924Z,20.20
2022-08-09T01:14:09.865Z,20.20
2022-08-09T01:16:47.494Z,20.20
2022-08-09T01:19:40.233Z,20.10
2022-08-09T01:22:35.494Z,20.10
2022-08-09T01:25:25.339Z,20.10
2022-08-09T01:27:57.038Z,20.10
2022-08-09T01:30:28.788Z,20.10
2022-08-09T01:33:03.263Z,20.00
2022-08-09T01:35:39.286Z,20.00
2022-08-09T01:38:18.360Z,20.00
2022-08-09T01:41:09.286Z,20.00
2022-08-09T01:43:50.548Z,20.00
2022-08-09T01:46:27.093Z,19.90
2022-08-09T01:48:59.839Z,19.90
2022-08-09T01:51:32.446Z,19.90
2022-08-09T01:54:02.830Z,19.80
2022-08-09T01:56:33.194Z,19.80
2022-08-09T01:59:03.754Z,19.80
2022-08-09T02:01:59.278Z,19.70
2022-08-09T02:04:21.844Z,19.70
2022-08-09T02:07:15.530Z,19.70
2022-08-09T02:10:04.607Z,19.60
2022-08-09T02:12:35.174Z,19.60
2022-08-09T02:15:06.350Z,19.50
2022-08-09T02:18:01.704Z,19.50
2022-08-09T02:20:26.254Z,19.50
2022-08-09T02:23:14.074Z,19.50
2022-08-09T02:25:49.627Z,19.40
2022-08-09T02:28:29.170Z,19.40
2022-08-09T02:31:03.476Z,19.40
2022-08-09T02:34:07.213Z,19.30
2022-08-09T02:36:39.231Z,19.40
2022-08-09T02:39:14.591Z,19.30
2022-08-09T02:41:58.113Z,19.20
2022-08-09T02:44:30.984Z,19.20
2022-08-09T02:47:02.160Z,19.20
2022-08-09T02:49:38.463Z,19.10
2022-08-09T02:52:07.835Z,19.10
2022-08-09T02:54:36.553Z,19.10
2022-08-09T02:57:23.571Z,19.10
2022-08-09T03:00:21.099Z,19.00
2022-08-09T03:02:58.059Z,19.00
2022-08-09T03:05:28.507Z,18.90
2022-08-09T03:07:56.429Z,18.90
2022-08-09T03:10:26.069Z,18.90
2022-08-09T03:12:55.666Z,18.80
2022-08-09T03:15:24.696Z,18.70
2022-08-09T03:18:11.794Z,18.80
2022-08-09T03:20:40.522Z,18.70
2022-08-09T03:23:14.949Z,18.70
2022-08-09T03:25:57.962Z,18.70
2022-08-09T03:28:30.937Z,18.60
2022-08-09T03:30:59.147Z,18.60
2022-08-09T03:33:54.287Z,18.60
2022-08-09T03:36:18.665Z,18.60
2022-08-09T03:38:47.812Z,18.60
2022-08-09T03:41:18.465Z,18.60
2022-08-09T03:44:03.491Z,18.60
2022-08-09T03:46:33.899Z,18.60
2022-08-09T03:49:03.686Z,18.50
2022-08-09T03:51:57.122Z,18.50
2022-08-09T03:54:20.114Z,18.50
2022-08-09T03:56:59.520Z,18.50
2022-08-09T03:59:52.894Z,18.50
2022-08-09T04:02:14.338Z,18.50
2022-08-09T04:04:45.579Z,18.40
2022-08-09T04:07:14.733Z,18.40
2022-08-09T04:09:50.140Z,18.40
2022-08-09T04:12:29.978Z,18.40
2022-08-09T04:15:02.021Z,18.40
2022-08-09T04:17:29.906Z,18.40
2022-08-09T04:19:58.798Z,18.40
2022-08-09T04:22:29.663Z,18.30
2022-08-09T04:24:58.936Z,18.30
2022-08-09T04:27:25.829Z,18.30
2022-08-09T04:29:56.092Z,18.30
2022-08-09T04:32:31.498Z,18.30
2022-08-09T04:35:01.330Z,18.20
2022-08-09T04:37:45.681Z,18.30
2022-08-09T04:40:19.257Z,18.30
2022-08-09T04:42:48.547Z,18.30
2022-08-09T04:45:16.627Z,18.30
2022-08-09T04:47:59.363Z,18.30
2022-08-09T04:50:33.568Z,18.40
2022-08-09T04:53:11.674Z,18.40
2022-08-09T04:55:57.965Z,18.50
2022-08-09T04:58:31.614Z,18.50
2022-08-09T05:00:59.230Z,18.50
2022-08-09T05:03:40.549Z,18.60
2022-08-09T05:06:18.245Z,18.50
2022-08-09T05:08:53.496Z,18.60
2022-08-09T05:11:32.205Z,18.60
2022-08-09T05:14:06.573Z,18.70
2022-08-09T05:16:58.206Z,18.80
2022-08-09T05:19:24.394Z,18.80
2022-08-09T05:21:55.217Z,18.90
2022-08-09T05:24:24.381Z,18.90
2022-08-09T05:26:52.392Z,19.10
2022-08-09T05:29:21.152Z,19.20
2022-08-09T05:31:57.547Z,19.30
2022-08-09T05:34:30.678Z,19.30
2022-08-09T05:37:06.250Z,19.40
2022-08-09T05:39:43.704Z,19.40
2022-08-09T05:42:17.984Z,19.50
2022-08-09T05:44:53.680Z,19.60
2022-08-09T05:47:22.840Z,19.80
2022-08-09T05:50:30.611Z,19.80
2022-08-09T05:52:40.353Z,19.90
2022-08-09T05:55:09.859Z,20.00
2022-08-09T05:57:51.260Z,20.00
2022-08-09T06:00:23.741Z,20.20
2022-08-09T06:02:54.553Z,20.20
2022-08-09T06:05:30.614Z,20.30
2022-08-09T06:08:11.753Z,20.30
2022-08-09T06:10:38.938Z,20.40
2022-08-09T06:13:12.305Z,20.50
2022-08-09T06:15:46.965Z,20.70
2022-08-09T06:18:15.751Z,20.70
2022-08-09T06:20:49.857Z,20.80
2022-08-09T06:23:21.785Z,20.90
2022-08-09T06:25:49.878Z,21.10
2022-08-09T06:28:22.223Z,21.10
2022-08-09T06:30:54.313Z,21.20
2022-08-09T06:33:41.178Z,21.30
2022-08-09T06:36:09.359Z,21.40
2022-08-09T06:38:43.063Z,21.50
2022-08-09T06:41:18.415Z,21.50
2022-08-09T06:43:49.610Z,21.70
2022-08-09T06:46:39.108Z,21.80
2022-08-09T06:49:06.699Z,22.00
2022-08-09T06:51:39.025Z,22.00
2022-08-09T06:54:06.980Z,22.00
2022-08-09T06:56:39.297Z,22.10
2022-08-09T07:00:50.845Z,22.10
2022-08-09T07:02:04.437Z,22.20
2022-08-09T07:04:32.162Z,22.30
2022-08-09T07:07:00.683Z,22.50
2022-08-09T07:09:56.469Z,22.60
2022-08-09T07:12:18.654Z,22.80
2022-08-09T07:14:51.314Z,22.90
2022-08-09T07:17:20.139Z,22.90
2022-08-09T07:19:50.983Z,23.20
2022-08-09T07:22:34.840Z,23.20
2022-08-09T07:25:05.083Z,23.40
2022-08-09T07:27:43.201Z,23.30
2022-08-09T07:30:21.695Z,23.40
2022-08-09T07:32:51.702Z,23.50
2022-08-09T07:35:19.068Z,23.70
2022-08-09T07:37:46.293Z,23.90
2022-08-09T07:40:20.130Z,24.00
2022-08-09T07:42:56.145Z,24.20
2022-08-09T07:45:39.388Z,24.30
2022-08-09T07:48:25.810Z,24.50
2022-08-09T07:51:09.246Z,24.70
2022-08-09T07:54:05.957Z,24.90
2022-08-09T07:56:31.156Z,24.80
2022-08-09T07:58:59.552Z,24.90
2022-08-09T08:01:28.462Z,25.00
2022-08-09T08:04:01.725Z,25.10
2022-08-09T08:06:31.838Z,25.30
2022-08-09T08:09:05.016Z,25.30
2022-08-09T08:12:24.317Z,25.50
2022-08-09T08:14:24.143Z,25.60
2022-08-09T08:17:07.550Z,25.70
2022-08-09T08:19:35.675Z,25.90
2022-08-09T08:22:03.592Z,26.20
2022-08-09T08:24:34.349Z,26.50
2022-08-09T08:27:16.995Z,26.80
2022-08-09T08:29:50.114Z,27.20
2022-08-09T08:32:24.215Z,27.70
2022-08-09T08:34:58.824Z,28.50
2022-08-09T08:37:41.189Z,29.30
2022-08-09T08:40:14.943Z,29.60
2022-08-09T08:42:47.254Z,30.00
2022-08-09T08:45:16.541Z,30.10
2022-08-09T08:47:45.770Z,30.50
2022-08-09T08:50:18.149Z,31.20
2022-08-09T08:52:59.159Z,31.40
2022-08-09T08:55:27.680Z,31.60
2022-08-09T08:57:57.353Z,31.60
2022-08-09T09:00:27.558Z,31.80
2022-08-09T09:03:08.236Z,31.90
2022-08-09T09:05:58.743Z,32.00
2022-08-09T09:08:30.319Z,32.30
2022-08-09T09:11:00.972Z,32.10
2022-08-09T09:13:41.931Z,32.00
2022-08-09T09:16:16.154Z,32.20
2022-08-09T09:18:48.151Z,32.80
2022-08-09T09:21:26.121Z,32.80
2022-08-09T09:23:58.203Z,33.10
2022-08-09T09:26:31.855Z,33.50
2022-08-09T09:29:10.479Z,33.90
2022-08-09T09:32:01.693Z,34.10
2022-08-09T09:34:34.025Z,34.40
2022-08-09T09:37:02.079Z,34.20
2022-08-09T09:39:50.160Z,34.70
2022-08-09T09:42:27.641Z,34.20
2022-08-09T09:44:59.534Z,34.10
2022-08-09T09:47:28.737Z,34.20
2022-08-09T09:50:14.145Z,34.40
2022-08-09T09:52:56.382Z,34.90
2022-08-09T09:55:32.642Z,35.70
2022-08-09T09:58:18.221Z,36.00
2022-08-09T10:00:54.639Z,36.50
2022-08-09T10:03:57.589Z,36.50
2022-08-09T10:06:32.228Z,36.10
2022-08-09T10:09:12.002Z,36.30
2022-08-09T10:12:12.583Z,37.00
2022-08-09T10:14:48.835Z,37.30
2022-08-09T10:17:51.025Z,36.90
2022-08-09T10:20:17.875Z,36.60
2022-08-09T10:23:13.506Z,36.60
2022-08-09T10:25:54.520Z,36.80
2022-08-09T10:28:30.688Z,37.10
2022-08-09T10:33:44.889Z,37.50
2022-08-09T10:36:32.296Z,37.30
2022-08-09T10:39:02.853Z,37.70
2022-08-09T10:41:32.974Z,38.60
2022-08-09T10:44:03.872Z,39.00
2022-08-09T10:46:57.511Z,39.00
2022-08-09T10:49:50.880Z,39.20
2022-08-09T10:52:46.526Z,39.70
2022-08-09T10:55:26.642Z,40.30
2022-08-09T10:58:00.313Z,39.90
2022-08-09T11:00:56.886Z,39.90
2022-08-09T11:03:46.941Z,39.40
2022-08-09T11:06:25.577Z,39.50
2022-08-09T11:08:53.325Z,39.60
2022-08-09T11:11:23.168Z,39.70
2022-08-09T11:14:41.900Z,39.80
2022-08-09T11:17:14.012Z,40.40
2022-08-09T11:20:19.918Z,40.10
2022-08-09T11:22:55.414Z,40.20
2022-08-09T11:25:44.648Z,40.90
2022-08-09T11:28:34.155Z,40.60
2022-08-09T11:31:04.311Z,41.00
2022-08-09T11:33:45.555Z,40.30
2022-08-09T11:36:35.455Z,40.00
2022-08-09T11:39:03.811Z,39.40
2022-08-09T11:41:38.296Z,39.10
2022-08-09T11:44:08.195Z,38.90
2022-08-09T11:46:55.825Z,38.70
2022-08-09T11:50:55.301Z,39.70
2022-08-09T11:53:55.234Z,39.90
2022-08-09T11:56:02.543Z,40.90
2022-08-09T11:58:33.224Z,40.50
2022-08-09T12:01:37.603Z,40.80
2022-08-09T12:04:01.001Z,41.10
2022-08-09T12:06:32.912Z,41.10
2022-08-09T12:09:19.416Z,41.40
2022-08-09T12:12:02.495Z,41.20
2022-08-09T12:14:40.462Z,41.40
2022-08-09T12:17:27.958Z,42.00
2022-08-09T12:20:19.800Z,42.20
2022-08-09T12:23:00.248Z,42.30
2022-08-09T12:25:35.733Z,41.70
2022-08-09T12:29:12.230Z,41.10
2022-08-09T12:30:59.621Z,41.00
2022-08-09T12:33:35.418Z,41.00
2022-08-09T12:36:15.438Z,41.90
2022-08-09T12:38:56.208Z,42.80
2022-08-09T12:41:38.058Z,42.90
2022-08-09T12:44:09.790Z,42.30
2022-08-09T12:46:50.116Z,41.70
2022-08-09T12:49:17.770Z,41.20
2022-08-09T12:52:01.110Z,40.40
2022-08-09T12:54:31.005Z,40.40
2022-08-09T12:56:58.841Z,40.20
2022-08-09T12:59:39.719Z,40.80
2022-08-09T13:02:17.843Z,41.80
2022-08-09T13:05:00.864Z,42.00
2022-08-09T13:07:50.136Z,42.80
2022-08-09T13:10:17.301Z,42.60
2022-08-09T13:13:10.039Z,41.70
2022-08-09T13:15:35.472Z,42.30
2022-08-09T13:18:06.087Z,43.50
2022-08-09T13:21:04.064Z,43.90
2022-08-09T13:24:16.340Z,43.90
2022-08-09T13:26:50.838Z,43.50
2022-08-09T13:29:19.264Z,42.50
2022-08-09T13:32:15.798Z,41.90
2022-08-09T13:34:46.629Z,40.20
2022-08-09T13:37:15.088Z,39.30
2022-08-09T13:41:51.302Z,39.60
2022-08-09T13:42:50.779Z,39.30
2022-08-09T13:45:18.175Z,38.00
2022-08-09T13:47:52.698Z,38.20
2022-08-09T13:50:30.437Z,39.40
2022-08-09T13:52:58.590Z,41.10
2022-08-09T13:55:28.998Z,42.00
2022-08-09T13:57:59.388Z,43.00
2022-08-09T14:00:29.481Z,43.10
2022-08-09T14:03:03.809Z,43.00
2022-08-09T14:05:58.267Z,42.20
2022-08-09T14:08:29.924Z,42.10
2022-08-09T14:10:57.901Z,41.30
2022-08-09T14:14:15.834Z,40.80
2022-08-09T14:16:15.901Z,40.50
2022-08-09T14:18:46.006Z,41.30
2022-08-09T14:21:18.499Z,41.80
2022-08-09T14:23:53.860Z,42.60
2022-08-09T14:26:30.518Z,43.50
2022-08-09T14:29:02.736Z,44.00
2022-08-09T14:31:36.229Z,43.50
2022-08-09T14:34:31.516Z,43.00
2022-08-09T14:37:06.719Z,40.80
2022-08-09T14:39:46.019Z,38.30
2022-08-09T14:42:30.301Z,37.60
2022-08-09T14:46:46.714Z,38.50
2022-08-09T14:47:58.459Z,39.70
2022-08-09T14:50:28.090Z,40.40
2022-08-09T14:52:54.956Z,41.00
2022-08-09T14:55:21.967Z,41.20
2022-08-09T14:57:49.351Z,41.80
2022-08-09T15:00:17.331Z,42.70
2022-08-09T15:02:47.320Z,42.80
2022-08-09T15:05:18.975Z,42.80
2022-08-09T15:07:54.735Z,42.60
2022-08-09T15:10:24.717Z,41.00
2022-08-09T15:12:53.064Z,38.90
2022-08-09T15:15:21.089Z,37.60
2022-08-09T15:17:52.401Z,37.10
2022-08-09T15:21:55.732Z,37.70
2022-08-09T15:24:03.600Z,38.00
2022-08-09T15:25:57.349Z,38.60
2022-08-09T15:28:28.024Z,40.20
2022-08-09T15:31:10.124Z,40.80
2022-08-09T15:34:17.738Z,41.60
2022-08-09T15:36:30.114Z,41.40
2022-08-09T15:38:59.909Z,42.30
2022-08-09T15:41:32.102Z,42.30
2022-08-09T15:44:02.718Z,41.00
2022-08-09T15:46:33.125Z,38.70
2022-08-09T15:49:21.687Z,37.10
2022-08-09T15:52:02.886Z,35.90
2022-08-09T15:54:49.181Z,35.60
2022-08-09T15:57:35.066Z,37.10
2022-08-09T16:00:14.777Z,38.20
2022-08-09T16:02:53.653Z,38.60
2022-08-09T16:05:22.490Z,39.00
2022-08-09T16:07:50.767Z,39.70
2022-08-09T16:10:54.628Z,40.00
2022-08-09T16:13:18.926Z,40.00
2022-08-09T16:16:11.574Z,39.30
2022-08-09T16:18:45.324Z,39.10
2022-08-09T16:21:17.303Z,38.80
2022-08-09T16:23:55.403Z,38.40
2022-08-09T16:26:34.117Z,38.60
2022-08-09T16:29:10.588Z,38.60
2022-08-09T16:32:19.049Z,38.70
2022-08-09T16:34:24.871Z,38.00
2022-08-09T16:36:51.736Z,36.70
2022-08-09T16:39:19.284Z,35.80
2022-08-09T16:42:04.075Z,34.80
2022-08-09T16:44:32.529Z,34.00
2022-08-09T16:47:04.210Z,33.60
2022-08-09T16:50:32.009Z,33.50
2022-08-09T16:52:34.813Z,33.30
2022-08-09T16:55:02.542Z,33.20
2022-08-09T16:58:09.272Z,33.40
2022-08-09T17:00:17.075Z,33.60
2022-08-09T17:02:46.298Z,33.70
2022-08-09T17:05:14.389Z,33.50
2022-08-09T17:08:43.270Z,33.00
2022-08-09T17:10:34.015Z,32.60
2022-08-09T17:13:02.598Z,32.40
2022-08-09T17:15:59.955Z,32.20
2022-08-09T17:18:26.951Z,32.10
2022-08-09T17:20:56.778Z,32.00
2022-08-09T17:23:23.807Z,32.00
2022-08-09T17:26:10.638Z,32.00
2022-08-09T17:28:39.198Z,31.90
2022-08-09T17:31:06.002Z,31.90
2022-08-09T17:33:37.706Z,31.90
2022-08-09T17:36:05.253Z,31.70
2022-08-09T17:38:37.176Z,31.60
2022-08-09T17:41:06.096Z,31.60
2022-08-09T17:43:37.277Z,31.50
2022-08-09T17:46:07.600Z,31.40
2022-08-09T17:48:39.391Z,31.40
2022-08-09T17:51:18.234Z,31.30
2022-08-09T17:53:52.679Z,31.10
2022-08-09T17:56:35.733Z,31.00
2022-08-09T17:59:09.178Z,30.80
2022-08-09T18:02:03.459Z,30.80
2022-08-09T18:04:23.870Z,30.70
2022-08-09T18:06:55.187Z,30.70
2022-08-09T18:09:40.524Z,30.50
2022-08-09T18:12:17.599Z,30.40
2022-08-09T18:14:55.206Z,30.30
2022-08-09T18:18:02.705Z,30.20
2022-08-09T18:20:54.929Z,30.10
2022-08-09T18:23:05.040Z,30.00
2022-08-09T18:25:53.256Z,29.80
2022-08-09T18:30:34.564Z,29.70
2022-08-09T18:31:08.895Z,29.60
2022-08-09T18:33:36.129Z,29.40
2022-08-09T18:36:03.090Z,29.30
2022-08-09T18:38:30.639Z,29.20
2022-08-09T18:40:58.317Z,29.10
2022-08-09T18:43:25.266Z,28.90
2022-08-09T18:46:50.301Z,28.80
2022-08-09T18:48:39.129Z,28.70
2022-08-09T18:51:09.614Z,28.60
2022-08-09T18:53:56.452Z,28.50
2022-08-09T18:56:27.015Z,28.40
2022-08-09T18:58:55.982Z,28.30
2022-08-09T19:01:23.428Z,28.10
2022-08-09T19:04:00.925Z,28.00
2022-08-09T19:06:33.270Z,27.90
2022-08-09T19:09:02.931Z,27.80
2022-08-09T19:11:37.649Z,27.80
2022-08-09T19:14:06.887Z,27.70
2022-08-09T19:16:36.698Z,27.60
2022-08-09T19:19:23.812Z,27.50
2022-08-09T19:22:06.811Z,27.40
2022-08-09T19:25:11.289Z,27.30
2022-08-09T19:27:22.609Z,27.20
2022-08-09T19:30:22.670Z,27.20
2022-08-09T19:32:37.167Z,27.10
2022-08-09T19:35:04.921Z,27.00
2022-08-09T19:37:40.861Z,27.00
2022-08-09T19:40:19.524Z,26.90
2022-08-09T19:42:48.976Z,26.80
2022-08-09T19:45:16.940Z,26.80
2022-08-09T19:47:44.627Z,26.70
2022-08-09T19:50:51.115Z,26.70
2022-08-09T19:52:59.609Z,26.60
2022-08-09T19:56:01.967Z,26.50
2022-08-09T19:58:18.094Z,26.50
2022-08-09T20:00:57.891Z,26.40
2022-08-09T20:04:16.744Z,26.40
2022-08-09T20:06:23.018Z,26.30
2022-08-09T20:08:56.602Z,26.20
2022-08-09T20:11:43.041Z,26.10
2022-08-09T20:14:16.304Z,26.10
2022-08-09T20:16:53.279Z,26.00
2022-08-09T20:19:47.567Z,25.90
2022-08-09T20:22:09.987Z,25.80
2022-08-09T20:24:37.337Z,25.80
2022-08-09T20:27:08.829Z,25.70
2022-08-09T20:29:38.648Z,25.60
2022-08-09T20:32:30.642Z,25.60
2022-08-09T20:34:58.341Z,25.50
2022-08-09T20:37:25.514Z,25.40
2022-08-09T20:40:19.228Z,25.40
2022-08-09T20:42:53.304Z,25.30
2022-08-09T20:45:59.669Z,25.20
2022-08-09T20:48:21.083Z,25.20
2022-08-09T20:50:51.156Z,25.10
2022-08-09T20:53:36.244Z,25.00
2022-08-09T20:56:20.583Z,25.00
2022-08-09T20:58:54.483Z,24.90
2022-08-09T21:01:34.154Z,24.90
2022-08-09T21:05:56.780Z,24.80
2022-08-09T21:07:12.503Z,24.80
2022-08-09T21:09:56.938Z,24.80
2022-08-09T21:15:23.702Z,24.70
2022-08-09T21:18:25.363Z,24.50
2022-08-09T21:20:54.166Z,24.50
2022-08-09T21:23:21.588Z,24.50
2022-08-09T21:25:59.351Z,24.40
2022-08-09T21:28:33.444Z,24.40
2022-08-09T21:31:17.109Z,24.30
2022-08-09T21:33:52.572Z,24.30
2022-08-09T21:36:28.089Z,24.20
2022-08-09T21:38:58.589Z,24.20
2022-08-09T21:42:03.660Z,24.10
2022-08-09T21:44:34.404Z,24.10
2022-08-09T21:47:07.917Z,24.00
2022-08-09T21:49:40.608Z,24.00
2022-08-09T21:52:17.815Z,23.90
2022-08-09T21:54:50.942Z,23.90
2022-08-09T21:57:38.943Z,23.80
2022-08-09T22:00:32.123Z,23.80
2022-08-09T22:03:06.010Z,23.70
2022-08-09T22:05:36.992Z,23.70
2022-08-09T22:08:07.121Z,23.60
2022-08-09T22:11:49.991Z,23.60
2022-08-09T22:13:34.408Z,23.50
2022-08-09T22:16:04.186Z,23.40
2022-08-09T22:18:32.936Z,23.40
2022-08-09T22:21:00.997Z,23.30
2022-08-09T22:23:35.056Z,23.30
2022-08-09T22:26:05.336Z,23.30
2022-08-09T22:28:36.426Z,23.20
2022-08-09T22:31:14.249Z,23.20
2022-08-09T22:33:48.849Z,23.10
2022-08-09T22:36:21.906Z,23.10
2022-08-09T22:38:49.076Z,23.00
2022-08-09T22:41:16.332Z,22.90
2022-08-09T22:44:03.320Z,22.90
2022-08-09T22:48:16.726Z,22.90
2022-08-09T22:49:17.563Z,22.80
2022-08-09T22:51:49.791Z,22.80
2022-08-09T22:54:27.059Z,22.70
2022-08-09T22:56:56.662Z,22.70
2022-08-09T22:59:56.740Z,22.60
2022-08-09T23:02:15.850Z,22.50
2022-08-09T23:04:53.434Z,22.30
2022-08-09T23:08:21.750Z,22.20
2022-08-09T23:10:28.255Z,22.10
2022-08-09T23:12:55.099Z,22.00
2022-08-09T23:15:22.110Z,21.90
2022-08-09T23:17:48.830Z,21.80
2022-08-09T23:20:15.633Z,21.80
2022-08-09T23:22:42.395Z,21.70
2022-08-09T23:25:10.811Z,21.60
2022-08-09T23:28:13.963Z,21.60
2022-08-09T23:30:24.636Z,21.50
2022-08-09T23:32:51.483Z,21.40
2022-08-09T23:35:18.327Z,21.40
2022-08-09T23:37:45.161Z,21.40
2022-08-09T23:40:12.422Z,21.30
2022-08-09T23:42:40.693Z,21.30
2022-08-09T23:45:08.896Z,21.20
2022-08-09T23:47:36.583Z,21.20
2022-08-09T23:50:04.988Z,21.10
2022-08-09T23:52:31.898Z,21.10
2022-08-09T23:54:59.971Z,21.10
2022-08-09T23:57:27.200Z,21.00
